Time;durP1;ratioP1;P1;durP2;ratioP2;P2;SDS_P1;SDS_P2;PMS_P1;PMS_P2;Temp;Humidity;BMP_temperature;BMP_pressure;BME280_temperature;BME280_humidity;BME280_pressure;Samples;Min_cycle;Max_cycle;Signal;HPM_P1;HPM_P2
2023/07/01 00:02:36;;;;;;;4.70;3.03;;;;;;;15.02;100.00;98079.19;15303334;19;20007;-80
2023/07/01 00:08:02;;;;;;;9.43;4.60;;;;;;;14.97;100.00;98072.69;15296813;19;20018;-82
2023/07/01 00:13:27;;;;;;;9.48;4.13;;;;;;;14.91;100.00;98072.47;15287394;19;20081;-82
2023/07/01 00:18:56;;;;;;;9.18;4.97;;;;;;;14.85;100.00;98073.25;15282901;19;20031;-80
2023/07/01 00:24:21;;;;;;;7.13;4.72;;;;;;;14.82;100.00;98080.94;15298848;19;20018;-80
2023/07/01 00:29:46;;;;;;;8.73;5.05;;;;;;;14.77;100.00;98071.50;15294977;19;20494;-79
2023/07/01 00:35:14;;;;;;;5.65;4.10;;;;;;;14.75;100.00;98070.91;15297778;19;20362;-80
2023/07/01 00:40:45;;;;;;;8.35;4.20;;;;;;;14.73;100.00;98083.81;15298182;19;20010;-83
2023/07/01 00:46:10;;;;;;;6.40;4.15;;;;;;;14.68;100.00;98075.41;15294625;19;20010;-80
2023/07/01 00:51:44;;;;;;;7.75;4.32;;;;;;;14.64;100.00;98065.97;15274595;19;20031;-47
2023/07/01 00:57:09;;;;;;;4.72;3.72;;;;;;;14.60;100.00;98053.84;15262047;19;20030;-49
2023/07/01 01:02:51;;;;;;;5.15;3.50;;;;;;;14.54;100.00;98046.47;15263498;19;20025;-47
2023/07/01 01:08:24;;;;;;;4.78;3.35;;;;;;;14.47;100.00;98041.84;15260024;19;20025;-45
2023/07/01 01:13:51;;;;;;;17.02;4.32;;;;;;;14.42;100.00;98030.75;15259295;19;20029;-47
2023/07/01 01:19:24;;;;;;;22.20;4.18;;;;;;;14.36;100.00;98027.97;15257553;19;20025;-45
2023/07/01 01:24:55;;;;;;;40.15;5.40;;;;;;;14.31;100.00;98032.13;15262091;19;20502;-47
2023/07/01 01:30:24;;;;;;;84.27;6.37;;;;;;;14.28;100.00;98029.81;15270183;19;20010;-48
2023/07/01 01:35:50;;;;;;;171.57;7.70;;;;;;;14.25;100.00;98027.47;15272868;19;20291;-47
2023/07/01 01:41:20;;;;;;;48.20;5.22;;;;;;;14.23;100.00;98026.00;15278807;19;20038;-47
2023/07/01 01:46:50;;;;;;;112.40;5.90;;;;;;;14.20;100.00;98029.94;15273232;19;20029;-47
2023/07/01 01:52:18;;;;;;;53.75;4.75;;;;;;;14.19;100.00;98041.81;15271575;19;20025;-47
2023/07/01 01:57:43;;;;;;;59.63;4.95;;;;;;;14.17;100.00;98041.16;15273698;19;20026;-45
2023/07/01 02:03:11;;;;;;;197.60;8.52;;;;;;;14.11;100.00;98040.06;15273094;19;20002;-45
2023/07/01 02:08:36;;;;;;;24.02;4.72;;;;;;;14.08;100.00;98032.31;15272281;19;20044;-48
2023/07/01 02:14:01;;;;;;;210.07;8.52;;;;;;;14.05;100.00;98013.78;15272559;19;20053;-46
2023/07/01 02:19:29;;;;;;;172.23;7.75;;;;;;;14.03;100.00;98018.53;15269144;19;20026;-47
2023/07/01 02:24:54;;;;;;;43.22;4.93;;;;;;;14.00;100.00;98025.16;15273412;19;20022;-48
2023/07/01 02:30:19;;;;;;;254.88;8.23;;;;;;;13.98;100.00;98023.69;15273515;19;20015;-44
2023/07/01 02:35:47;;;;;;;110.75;4.97;;;;;;;13.94;100.00;98011.56;15268510;19;20035;-49
2023/07/01 02:41:12;;;;;;;295.25;7.88;;;;;;;13.91;100.00;98026.31;15272009;19;20783;-46
2023/07/01 02:46:37;;;;;;;157.45;5.47;;;;;;;13.86;100.00;98018.78;15269157;19;20042;-48
2023/07/01 02:52:05;;;;;;;74.78;4.22;;;;;;;13.83;100.00;98019.16;15269203;19;20018;-47
2023/07/01 02:57:30;;;;;;;188.35;5.15;;;;;;;13.81;100.00;98018.53;15267996;19;20051;-47
2023/07/01 03:03:05;;;;;;;414.23;9.63;;;;;;;13.76;100.00;98017.44;15268767;19;20014;-50
2023/07/01 03:08:33;;;;;;;318.30;6.90;;;;;;;13.69;100.00;98018.19;15266421;19;20014;-46
2023/07/01 03:13:58;;;;;;;595.22;13.00;;;;;;;13.64;100.00;98017.09;15269973;19;20388;-47
2023/07/01 03:19:23;;;;;;;202.95;6.63;;;;;;;13.61;100.00;98025.56;15270109;19;20018;-48
2023/07/01 03:24:51;;;;;;;347.25;9.52;;;;;;;13.53;100.00;98021.13;15269771;19;20014;-47
2023/07/01 03:30:19;;;;;;;209.85;7.10;;;;;;;13.47;100.00;98032.72;15275397;19;20022;-50
2023/07/01 03:35:44;;;;;;;103.32;6.15;;;;;;;13.44;100.00;98024.97;15268093;19;20023;-47
2023/07/01 03:41:12;;;;;;;50.00;5.88;;;;;;;13.39;100.00;98028.22;15272591;19;20018;-49
2023/07/01 03:46:37;;;;;;;85.68;6.40;;;;;;;13.37;100.00;98027.56;15268081;19;20022;-48
2023/07/01 03:52:09;;;;;;;149.65;7.50;;;;;;;13.31;100.00;98033.72;15268315;19;20022;-47
2023/07/01 03:57:37;;;;;;;44.50;5.45;;;;;;;13.30;100.00;98032.06;15268745;19;20023;-47
2023/07/01 04:03:05;;;;;;;15.30;5.03;;;;;;;13.25;100.00;98038.84;15268125;19;20536;-51
2023/07/01 04:08:30;;;;;;;7.72;5.07;;;;;;;13.24;100.00;98041.75;15265445;19;20404;-48
2023/07/01 04:13:58;;;;;;;9.15;5.15;;;;;;;13.29;100.00;98047.44;15265997;19;20014;-46
2023/07/01 04:19:23;;;;;;;10.25;5.30;;;;;;;13.33;100.00;98056.03;15266640;19;20042;-48
2023/07/01 04:24:48;;;;;;;8.15;4.70;;;;;;;13.35;100.00;98044.00;15268652;19;20043;-47
2023/07/01 04:30:17;;;;;;;9.23;4.20;;;;;;;13.41;100.00;98037.00;15270523;19;20023;-48
2023/07/01 04:35:42;;;;;;;9.55;4.18;;;;;;;13.45;100.00;98040.19;15264444;19;20029;-47
2023/07/01 04:41:06;;;;;;;5.18;3.63;;;;;;;13.53;100.00;98040.06;15267197;19;20505;-47
2023/07/01 04:46:34;;;;;;;5.68;3.53;;;;;;;13.55;100.00;98027.19;15265283;19;20018;-49
2023/07/01 04:52:00;;;;;;;5.97;3.42;;;;;;;13.60;100.00;98018.47;15268871;19;20042;-47
2023/07/01 04:57:24;;;;;;;4.07;3.10;;;;;;;13.65;100.00;98016.06;15266128;19;20085;-46
2023/07/01 05:02:52;;;;;;;4.60;2.92;;;;;;;13.65;100.00;97999.81;15267298;19;20029;-48
2023/07/01 05:08:17;;;;;;;3.58;2.90;;;;;;;13.71;100.00;97993.63;15282002;19;20010;-49
2023/07/01 05:13:42;;;;;;;4.53;2.88;;;;;;;13.70;100.00;97981.16;15281234;19;20375;-50
2023/07/01 05:19:10;;;;;;;5.85;3.17;;;;;;;13.74;100.00;97989.72;15279679;19;20026;-48
2023/07/01 05:24:36;;;;;;;3.97;2.67;;;;;;;13.82;100.00;97986.88;15280137;19;20025;-46
2023/07/01 05:30:01;;;;;;;4.50;2.70;;;;;;;13.82;100.00;97976.88;15283606;19;20018;-45
2023/07/01 05:35:28;;;;;;;4.20;2.30;;;;;;;13.83;100.00;97956.88;15275434;19;20015;-47
2023/07/01 05:40:53;;;;;;;2.65;2.10;;;;;;;13.89;100.00;97944.44;15283232;19;20014;-51
2023/07/01 05:46:18;;;;;;;2.65;2.10;;;;;;;13.94;100.00;97933.03;15277407;19;20059;-49
2023/07/01 05:51:52;;;;;;;3.13;2.28;;;;;;;14.03;100.00;97932.69;15276342;19;20022;-50
2023/07/01 05:57:18;;;;;;;3.33;1.83;;;;;;;14.09;100.00;97917.53;15275185;19;20010;-45
2023/07/01 06:02:50;;;;;;;2.55;1.52;;;;;;;14.14;100.00;97879.88;15318909;19;20418;-80
2023/07/01 06:08:17;;;;;;;2.95;1.80;;;;;;;14.25;100.00;97864.09;15357119;19;20018;-84
2023/07/01 06:13:42;;;;;;;2.15;1.60;;;;;;;14.34;100.00;97846.63;15356910;19;20007;-82
2023/07/01 06:19:10;;;;;;;3.25;1.70;;;;;;;14.43;100.00;97845.44;15349450;19;20064;-82
2023/07/01 06:24:33;;;;;;;2.90;1.70;;;;;;;14.54;100.00;97848.59;15349096;19;20006;-81
2023/07/01 06:29:59;;;;;;;3.00;1.70;;;;;;;14.64;100.00;97830.13;15350605;19;20007;-80
2023/07/01 06:35:25;;;;;;;3.10;1.70;;;;;;;14.75;100.00;97836.84;15312297;19;20600;-81
2023/07/01 06:40:58;;;;;;;3.08;1.65;;;;;;;14.87;100.00;97815.44;15312709;19;20017;-81
2023/07/01 06:46:24;;;;;;;2.78;1.67;;;;;;;15.04;100.00;97843.84;15357364;19;20013;-83
2023/07/01 06:51:49;;;;;;;2.03;1.35;;;;;;;15.12;100.00;97803.97;15300375;19;20357;-82
2023/07/01 06:57:17;;;;;;;3.58;1.38;;;;;;;15.29;100.00;97799.84;15318155;19;20006;-82
2023/07/01 07:02:49;;;;;;;2.13;1.30;;;;;;;15.40;100.00;97773.97;15316667;19;20018;-55
2023/07/01 07:08:13;;;;;;;2.35;1.30;;;;;;;15.54;100.00;97742.22;15264120;19;20586;-57
2023/07/01 07:13:41;;;;;;;2.80;1.40;;;;;;;15.72;100.00;97750.56;15270069;19;20010;-55
2023/07/01 07:19:05;;;;;;;3.55;1.40;;;;;;;15.86;100.00;97726.13;15269709;19;20419;-56
2023/07/01 07:24:30;;;;;;;4.32;1.50;;;;;;;16.07;100.00;97716.88;15268994;19;20428;-55
2023/07/01 07:30:04;;;;;;;3.58;1.40;;;;;;;16.25;100.00;97699.88;15269197;19;20014;-55
2023/07/01 07:35:30;;;;;;;2.88;1.33;;;;;;;16.48;100.00;97683.03;15271332;19;20078;-56
2023/07/01 07:40:57;;;;;;;3.38;1.38;;;;;;;16.74;100.00;97656.72;15272433;19;20021;-56
2023/07/01 07:46:24;;;;;;;4.05;1.20;;;;;;;16.93;100.00;97646.75;15270963;19;20316;-53
2023/07/01 07:51:49;;;;;;;5.05;1.40;;;;;;;17.18;100.00;97643.22;15268422;19;20489;-54
2023/07/01 07:57:13;;;;;;;5.03;1.10;;;;;;;17.36;100.00;97627.97;15269126;19;20479;-57
2023/07/01 08:02:44;;;;;;;4.30;1.33;;;;;;;17.52;100.00;97616.50;15267100;19;20022;-58
2023/07/01 08:08:11;;;;;;;2.47;1.00;;;;;;;17.73;100.00;97613.56;15271519;19;20010;-58
2023/07/01 08:13:36;;;;;;;2.63;1.20;;;;;;;17.94;100.00;97606.78;15266290;19;20014;-57
2023/07/01 08:19:03;;;;;;;3.65;1.20;;;;;;;18.04;100.00;97588.06;15269736;19;20029;-57
2023/07/01 08:24:28;;;;;;;2.10;1.00;;;;;;;18.34;100.00;97579.03;15269327;19;20014;-52
2023/07/01 08:29:53;;;;;;;2.53;1.00;;;;;;;18.48;100.00;97575.03;15269898;19;20018;-57
2023/07/01 08:35:21;;;;;;;1.35;1.00;;;;;;;18.72;100.00;97552.41;15267279;19;20026;-54
2023/07/01 08:40:45;;;;;;;2.83;0.93;;;;;;;18.90;100.00;97546.03;15275068;19;20469;-53
2023/07/01 08:46:14;;;;;;;3.65;0.90;;;;;;;19.11;100.00;97541.09;15281268;19;20010;-55
2023/07/01 08:51:46;;;;;;;2.45;0.82;;;;;;;19.17;100.00;97521.00;15280561;19;20018;-54
2023/07/01 08:57:10;;;;;;;1.35;0.90;;;;;;;19.33;100.00;97527.63;15278907;19;20035;-56
2023/07/01 09:02:38;;;;;;;3.47;0.90;;;;;;;19.39;100.00;97523.97;15276404;19;20039;-57
2023/07/01 09:08:13;;;;;;;2.10;0.80;;;;;;;19.60;100.00;97514.25;15284652;19;20021;-55
2023/07/01 09:13:38;;;;;;;6.07;0.80;;;;;;;19.80;100.00;97513.84;15282141;19;20472;-56
2023/07/01 09:19:16;;;;;;;4.25;0.70;;;;;;;19.94;100.00;97506.19;15272840;19;20547;-54
2023/07/01 09:24:45;;;;;;;3.60;0.85;;;;;;;20.02;100.00;97494.03;15280539;19;20367;-56
2023/07/01 09:30:10;;;;;;;4.25;0.90;;;;;;;20.28;100.00;97500.81;15280451;19;20047;-55
2023/07/01 09:35:43;;;;;;;2.72;0.90;;;;;;;20.36;100.00;97493.28;15277033;19;20022;-54
2023/07/01 09:41:23;;;;;;;2.55;0.80;;;;;;;20.45;100.00;97481.69;15278492;19;20094;-57
2023/07/01 09:46:50;;;;;;;2.05;0.80;;;;;;;20.56;100.00;97481.84;15280401;19;20014;-53
2023/07/01 09:52:16;;;;;;;3.22;0.90;;;;;;;20.88;100.00;97481.25;15269924;19;20046;-51
2023/07/01 09:57:44;;;;;;;4.10;0.80;;;;;;;21.17;100.00;97462.75;15276397;19;20015;-56
2023/07/01 10:03:08;;;;;;;2.00;0.93;;;;;;;21.35;100.00;97439.72;15277871;19;20363;-55
2023/07/01 10:08:33;;;;;;;3.40;0.85;;;;;;;21.58;90.09;97442.44;15278932;19;20090;-55
2023/07/01 10:14:04;;;;;;;4.68;1.10;;;;;;;21.65;90.12;97437.59;15276611;19;20038;-53
2023/07/01 10:19:31;;;;;;;3.08;0.90;;;;;;;21.69;83.39;97433.28;15279040;19;20039;-54
2023/07/01 10:25:05;;;;;;;1.30;0.90;;;;;;;21.53;81.71;97449.50;15275576;19;20015;-55
2023/07/01 10:31:08;;;;;;;2.00;0.82;;;;;;;21.73;85.91;97417.94;15276679;19;20010;-54
2023/07/01 10:36:36;;;;;;;4.40;0.90;;;;;;;21.98;95.29;97424.78;15275059;19;20039;-55
2023/07/01 10:42:01;;;;;;;1.33;0.80;;;;;;;22.07;84.93;97416.91;15272084;19;20062;-52
2023/07/01 10:47:29;;;;;;;3.97;0.80;;;;;;;22.30;92.81;97415.72;15278085;19;20078;-51
2023/07/01 10:53:04;;;;;;;2.67;1.10;;;;;;;22.39;79.77;97403.19;15271523;19;20026;-49
2023/07/01 10:58:31;;;;;;;3.20;1.00;;;;;;;22.61;87.47;97415.97;15269876;19;20805;-53
2023/07/01 11:04:01;;;;;;;1.67;0.90;;;;;;;22.61;73.54;97413.22;15273053;19;20018;-55
2023/07/01 11:09:36;;;;;;;2.45;0.90;;;;;;;22.60;84.39;97386.88;15272248;19;20014;-55
2023/07/01 11:15:02;;;;;;;2.33;0.80;;;;;;;22.80;92.66;97380.69;15273202;19;20018;-54
2023/07/01 11:20:30;;;;;;;2.30;0.95;;;;;;;22.93;90.06;97382.09;15272067;19;20020;-55
2023/07/01 11:25:54;;;;;;;1.10;0.70;;;;;;;22.75;69.85;97373.25;15272987;19;20028;-50
2023/07/01 11:31:24;;;;;;;1.90;0.80;;;;;;;22.82;75.97;97372.16;15268833;19;20025;-53
2023/07/01 11:36:52;;;;;;;1.65;0.90;;;;;;;22.94;72.99;97362.59;15268482;19;20718;-52
2023/07/01 11:42:17;;;;;;;1.45;0.90;;;;;;;23.04;70.63;97370.06;15268704;19;20018;-55
2023/07/01 11:47:48;;;;;;;1.05;0.80;;;;;;;22.90;65.85;97358.75;15274425;19;20093;-50
2023/07/01 11:53:19;;;;;;;2.67;0.90;;;;;;;23.01;69.73;97351.38;15270236;19;20037;-53
2023/07/01 11:58:52;;;;;;;3.30;0.80;;;;;;;23.33;78.73;97333.09;15270195;19;20343;-52
2023/07/01 12:04:27;;;;;;;3.67;1.10;;;;;;;23.30;66.37;97350.97;15269863;19;20013;-52
2023/07/01 12:09:56;;;;;;;2.15;1.00;;;;;;;23.33;68.63;97341.34;15267522;19;20011;-49
2023/07/01 12:15:21;;;;;;;3.63;0.85;;;;;;;23.52;78.61;97336.16;15267153;19;20225;-48
2023/07/01 12:20:47;;;;;;;2.45;0.82;;;;;;;23.73;65.73;97336.19;15263590;19;20019;-49
2023/07/01 12:26:14;;;;;;;1.15;0.85;;;;;;;23.77;72.29;97332.59;15266757;19;20021;-50
2023/07/01 12:31:39;;;;;;;5.15;1.20;;;;;;;23.77;62.58;97321.59;15262661;19;20018;-50
2023/07/01 12:37:03;;;;;;;2.53;1.10;;;;;;;23.61;67.08;97328.22;15264094;19;20102;-50
2023/07/01 12:42:31;;;;;;;2.42;1.10;;;;;;;23.52;64.21;97325.97;15264879;19;20037;-50
2023/07/01 12:47:56;;;;;;;3.15;0.80;;;;;;;23.48;65.21;97326.78;15268563;19;20017;-49
2023/07/01 12:53:20;;;;;;;6.38;1.00;;;;;;;23.41;64.79;97316.06;15266209;19;20015;-51
2023/07/01 12:58:49;;;;;;;1.98;1.00;;;;;;;23.46;68.10;97318.03;15265058;19;20024;-51
2023/07/01 13:04:18;;;;;;;3.78;1.00;;;;;;;23.49;64.54;97320.22;15259272;19;20369;-52
2023/07/01 13:09:49;;;;;;;1.67;0.95;;;;;;;23.46;62.35;97304.28;15266421;19;20468;-53
2023/07/01 13:15:31;;;;;;;2.85;1.00;;;;;;;23.28;60.01;97313.88;15264284;19;20033;-51
2023/07/01 13:20:57;;;;;;;2.20;1.10;;;;;;;23.05;62.61;97311.28;15263171;19;20014;-53
2023/07/01 13:26:23;;;;;;;1.95;0.80;;;;;;;23.02;64.02;97295.34;15271882;19;20025;-51
2023/07/01 13:31:53;;;;;;;4.18;1.13;;;;;;;22.98;66.53;97290.66;15278249;19;20017;-51
2023/07/01 13:37:21;;;;;;;3.65;1.00;;;;;;;22.88;68.17;97303.28;15276317;19;20462;-50
2023/07/01 13:42:47;;;;;;;3.08;0.90;;;;;;;22.79;69.81;97302.16;15275540;19;20526;-55
2023/07/01 13:48:27;;;;;;;1.55;0.88;;;;;;;22.78;64.95;97301.31;15281840;19;20038;-54
2023/07/01 13:53:52;;;;;;;4.05;0.80;;;;;;;23.16;64.94;97301.16;15281447;19;20028;-56
2023/07/01 13:59:20;;;;;;;2.88;0.90;;;;;;;23.24;65.84;97303.41;15278427;19;20026;-55
2023/07/01 14:04:48;;;;;;;1.63;0.90;;;;;;;23.09;70.77;97301.44;15276267;19;20019;-54
2023/07/01 14:10:23;;;;;;;1.87;0.90;;;;;;;23.07;67.25;97313.75;15275219;19;20023;-57
2023/07/01 14:15:53;;;;;;;1.70;0.93;;;;;;;23.07;69.96;97289.03;15275464;19;20022;-56
2023/07/01 14:21:28;;;;;;;2.28;0.80;;;;;;;23.19;72.74;97297.03;15277749;19;20014;-51
2023/07/01 14:26:53;;;;;;;5.05;0.70;;;;;;;23.05;79.55;97303.06;15276991;19;20478;-51
2023/07/01 14:32:18;;;;;;;2.40;0.88;;;;;;;22.86;77.24;97291.72;15273962;19;20014;-55
2023/07/01 14:37:48;;;;;;;1.58;0.80;;;;;;;22.94;76.28;97288.44;15272021;19;20345;-54
2023/07/01 14:43:14;;;;;;;1.83;0.70;;;;;;;22.94;77.99;97282.97;15271585;19;20034;-58
2023/07/01 14:48:39;;;;;;;2.17;0.90;;;;;;;22.98;83.64;97288.75;15275678;19;20014;-55
2023/07/01 14:54:08;;;;;;;3.95;0.88;;;;;;;22.87;82.42;97293.38;15271142;19;20085;-54
2023/07/01 14:59:36;;;;;;;3.25;0.70;;;;;;;22.83;85.77;97296.94;15271412;19;20013;-57
2023/07/01 15:05:07;;;;;;;2.97;0.73;;;;;;;22.63;86.54;97298.50;15269032;19;20130;-55
2023/07/01 15:10:35;;;;;;;0.80;0.60;;;;;;;22.36;96.28;97293.94;15274183;19;20043;-56
2023/07/01 15:16:03;;;;;;;2.85;0.90;;;;;;;22.09;96.54;97289.38;15271037;19;20411;-50
2023/07/01 15:21:27;;;;;;;2.03;0.70;;;;;;;21.98;100.00;97295.88;15271902;19;20125;-52
2023/07/01 15:26:56;;;;;;;1.73;0.70;;;;;;;21.94;100.00;97297.50;15272229;19;20623;-54
2023/07/01 15:32:22;;;;;;;3.88;0.70;;;;;;;21.76;100.00;97295.97;15270762;19;20018;-57
2023/07/01 15:37:47;;;;;;;2.90;0.70;;;;;;;21.67;100.00;97280.03;15271779;19;20014;-57
2023/07/01 15:43:16;;;;;;;2.75;0.68;;;;;;;21.62;100.00;97290.13;15271593;19;20534;-50
2023/07/01 15:48:41;;;;;;;2.45;0.73;;;;;;;21.49;100.00;97292.16;15265924;19;21290;-52
2023/07/01 15:54:05;;;;;;;2.17;0.77;;;;;;;21.33;100.00;97293.13;15268696;19;20018;-51
2023/07/01 15:59:34;;;;;;;1.30;0.50;;;;;;;21.25;100.00;97300.72;15265498;19;20583;-50
2023/07/01 16:05:10;;;;;;;1.88;0.68;;;;;;;21.10;100.00;97297.84;15267294;19;20018;-54
2023/07/01 16:10:36;;;;;;;0.65;0.57;;;;;;;21.04;100.00;97301.56;15269403;19;20047;-47
2023/07/01 16:16:08;;;;;;;0.45;0.45;;;;;;;20.91;100.00;97311.84;15261524;19;20033;-48
2023/07/01 16:21:33;;;;;;;0.60;0.50;;;;;;;20.77;100.00;97297.72;15263018;19;20813;-48
2023/07/01 16:26:58;;;;;;;3.25;0.57;;;;;;;20.64;100.00;97300.81;15268790;19;20029;-52
2023/07/01 16:32:25;;;;;;;0.88;0.63;;;;;;;20.53;100.00;97309.97;15265023;19;20022;-52
2023/07/01 16:37:51;;;;;;;1.15;0.60;;;;;;;20.41;100.00;97315.53;15267354;19;20018;-49
2023/07/01 16:43:17;;;;;;;4.45;0.60;;;;;;;20.22;100.00;97328.69;15265031;19;20051;-57
2023/07/01 16:49:03;;;;;;;0.50;0.40;;;;;;;19.97;100.00;97332.69;15268133;19;20022;-49
2023/07/01 16:54:34;;;;;;;1.15;0.50;;;;;;;19.93;100.00;97337.00;15265612;19;20086;-52
2023/07/01 16:59:59;;;;;;;1.83;0.52;;;;;;;19.85;100.00;97328.09;15268032;19;20022;-53
2023/07/01 17:05:34;;;;;;;1.35;0.50;;;;;;;19.84;100.00;97334.66;15280012;19;20016;-58
2023/07/01 17:11:00;;;;;;;0.73;0.60;;;;;;;19.79;100.00;97329.09;15276673;19;20467;-58
2023/07/01 17:16:29;;;;;;;0.82;0.50;;;;;;;19.79;100.00;97320.06;15282038;19;20019;-57
2023/07/01 17:21:58;;;;;;;2.38;0.60;;;;;;;19.72;100.00;97325.69;15274975;19;20031;-56
2023/07/01 17:27:23;;;;;;;2.90;0.70;;;;;;;19.64;100.00;97329.66;15282717;19;20016;-51
2023/07/01 17:32:48;;;;;;;5.70;0.68;;;;;;;19.57;100.00;97329.00;15275103;19;20025;-48
2023/07/01 17:38:16;;;;;;;3.78;0.60;;;;;;;19.52;100.00;97331.63;15279276;19;20043;-52
2023/07/01 17:43:41;;;;;;;2.78;0.80;;;;;;;19.45;100.00;97330.97;15274855;19;20221;-51
2023/07/01 17:49:06;;;;;;;4.07;0.70;;;;;;;19.39;100.00;97328.13;15278399;19;20032;-50
2023/07/01 17:54:34;;;;;;;1.42;0.68;;;;;;;19.34;100.00;97330.78;15276380;19;20040;-47
2023/07/01 17:59:59;;;;;;;1.08;0.68;;;;;;;19.30;100.00;97350.59;15273033;19;20015;-49
2023/07/01 18:05:25;;;;;;;5.47;0.70;;;;;;;19.09;100.00;97345.59;15276186;19;20011;-47
2023/07/01 18:10:53;;;;;;;1.17;0.70;;;;;;;18.70;100.00;97369.88;15274671;19;20021;-46
2023/07/01 18:16:19;;;;;;;2.33;0.60;;;;;;;18.31;100.00;97385.91;15274796;19;20020;-47
2023/07/01 18:21:47;;;;;;;1.48;0.70;;;;;;;17.90;100.00;97404.78;15272153;19;20020;-52
2023/07/01 18:27:21;;;;;;;4.28;0.60;;;;;;;17.41;100.00;97451.97;15270069;19;20778;-77
2023/07/01 18:32:46;;;;;;;4.07;0.77;;;;;;;16.99;100.00;97486.44;15304253;19;20031;-79
2023/07/01 18:38:10;;;;;;;5.63;1.10;;;;;;;16.72;100.00;97539.16;15287742;19;20082;-79
2023/07/01 18:43:38;;;;;;;1.95;0.82;;;;;;;16.45;100.00;97587.47;15288988;19;20542;-80
2023/07/01 18:49:02;;;;;;;1.13;0.90;;;;;;;16.26;100.00;97620.00;15284505;19;20014;-79
2023/07/01 18:54:28;;;;;;;3.38;1.00;;;;;;;16.13;100.00;97649.97;15289466;19;20819;-79
2023/07/01 18:59:56;;;;;;;5.65;1.20;;;;;;;16.04;100.00;97676.53;15287733;19;20015;-79
2023/07/01 19:05:21;;;;;;;1.85;0.95;;;;;;;15.98;100.00;97691.81;15292892;19;20352;-78
2023/07/01 19:10:46;;;;;;;2.50;1.10;;;;;;;15.94;100.00;97698.72;14786341;19;9999974;-78
2023/07/01 19:16:14;;;;;;;1.98;0.90;;;;;;;15.98;100.00;97693.72;15295886;19;20500;-79
2023/07/01 19:21:39;;;;;;;1.63;0.90;;;;;;;15.97;100.00;97687.44;15297004;19;20382;-80
2023/07/01 19:27:04;;;;;;;2.92;1.00;;;;;;;15.99;100.00;97693.50;15304666;19;20083;-79
2023/07/01 19:32:31;;;;;;;2.15;1.00;;;;;;;16.00;100.00;97681.56;15347547;19;20019;-79
2023/07/01 19:38:17;;;;;;;2.35;1.10;;;;;;;16.02;100.00;97684.91;15349489;19;20049;-79
2023/07/01 19:43:44;;;;;;;2.00;1.38;;;;;;;16.02;100.00;97678.63;15334891;19;20025;-78
2023/07/01 19:49:11;;;;;;;2.03;1.13;;;;;;;16.02;100.00;97673.19;15288792;19;20362;-78
2023/07/01 19:54:36;;;;;;;2.92;1.10;;;;;;;16.02;100.00;97676.78;15282157;19;20010;-79
2023/07/01 20:00:00;;;;;;;1.73;1.10;;;;;;;16.02;100.00;97693.06;15287161;19;20018;-79
2023/07/01 20:05:28;;;;;;;1.67;1.10;;;;;;;16.04;100.00;97692.03;15280686;19;20479;-82
2023/07/01 20:10:52;;;;;;;1.40;1.10;;;;;;;16.04;100.00;97692.03;15285780;19;20007;-81
2023/07/01 20:16:17;;;;;;;2.88;1.52;;;;;;;16.06;100.00;97684.47;15283256;19;20018;-79
2023/07/01 20:21:44;;;;;;;2.53;1.30;;;;;;;16.04;100.00;97681.16;15283986;19;20031;-80
2023/07/01 20:27:19;;;;;;;2.40;1.17;;;;;;;16.04;100.00;97681.97;15289740;19;20007;-79
2023/07/01 20:32:43;;;;;;;3.85;1.20;;;;;;;16.04;100.00;97670.28;15300411;19;20042;-81
2023/07/01 20:38:12;;;;;;;3.33;1.00;;;;;;;16.02;100.00;97660.47;15295810;19;20097;-80
2023/07/01 20:43:37;;;;;;;3.47;0.88;;;;;;;16.00;100.00;97653.56;15283354;19;20014;-80
2023/07/01 20:49:02;;;;;;;3.80;0.80;;;;;;;15.99;100.00;97657.34;15279607;19;20475;-81
2023/07/01 20:54:29;;;;;;;0.80;0.80;;;;;;;15.98;100.00;97650.25;15280536;19;20050;-79
2023/07/01 20:59:54;;;;;;;1.70;0.80;;;;;;;15.99;100.00;97641.88;15283386;19;20026;-79
2023/07/01 21:05:18;;;;;;;0.60;0.60;;;;;;;16.02;100.00;97630.59;15283717;19;20026;-80
2023/07/01 21:10:46;;;;;;;1.40;0.85;;;;;;;16.02;100.00;97630.59;15284186;19;20022;-80
2023/07/01 21:16:10;;;;;;;1.33;0.60;;;;;;;16.05;100.00;97631.22;15276885;19;20039;-80
2023/07/01 21:21:36;;;;;;;1.25;0.60;;;;;;;16.06;100.00;97630.13;15276014;19;20018;-81
2023/07/01 21:27:03;;;;;;;0.70;0.70;;;;;;;16.04;100.00;97638.50;15280363;19;20029;-81
2023/07/01 21:32:28;;;;;;;2.97;0.80;;;;;;;16.04;100.00;97629.53;15284464;19;20094;-80
2023/07/01 21:37:57;;;;;;;1.02;0.70;;;;;;;16.05;100.00;97637.47;15281512;19;20398;-81
2023/07/01 21:43:29;;;;;;;0.63;0.60;;;;;;;16.06;100.00;97635.56;15292337;19;20019;-81
2023/07/01 21:48:59;;;;;;;1.85;0.68;;;;;;;16.07;100.00;97631.81;15304273;19;20014;-83
2023/07/01 21:54:25;;;;;;;1.02;0.88;;;;;;;16.10;100.00;97632.22;15291224;19;20018;-80
2023/07/01 21:59:59;;;;;;;1.00;0.70;;;;;;;16.12;100.00;97645.59;15292957;19;20013;-82
2023/07/01 22:05:26;;;;;;;1.45;0.85;;;;;;;16.11;100.00;97639.28;15288421;19;20031;-83
2023/07/01 22:10:50;;;;;;;1.85;0.70;;;;;;;16.09;100.00;97646.00;15293044;19;20070;-80
2023/07/01 22:16:19;;;;;;;1.33;0.77;;;;;;;16.07;100.00;97643.53;15290329;19;20022;-80
2023/07/01 22:21:47;;;;;;;3.75;1.02;;;;;;;16.08;100.00;97649.78;15291353;19;20391;-80
2023/07/01 22:27:18;;;;;;;0.85;0.68;;;;;;;16.09;100.00;97651.44;15287838;19;20021;-83
2023/07/01 22:32:45;;;;;;;1.55;0.70;;;;;;;16.10;100.00;97647.69;15290396;19;20010;-82
2023/07/01 22:38:11;;;;;;;1.38;0.70;;;;;;;16.09;100.00;97646.00;15310514;19;20014;-80
2023/07/01 22:43:36;;;;;;;1.10;0.70;;;;;;;16.10;100.00;97636.81;15279327;19;20613;-82
2023/07/01 22:49:04;;;;;;;2.88;0.60;;;;;;;16.07;100.00;97637.22;15282527;19;20022;-82
2023/07/01 22:54:29;;;;;;;0.82;0.60;;;;;;;16.08;100.00;97636.19;15281290;19;20010;-82
2023/07/01 22:59:53;;;;;;;1.85;0.50;;;;;;;16.08;100.00;97625.31;15283147;19;20349;-82
2023/07/01 23:05:22;;;;;;;2.08;0.70;;;;;;;16.07;100.00;97621.78;15282502;19;20036;-82
2023/07/01 23:10:46;;;;;;;1.75;0.70;;;;;;;16.06;100.00;97639.13;15286501;19;20014;-82
2023/07/01 23:16:13;;;;;;;1.85;0.70;;;;;;;16.07;100.00;97627.22;15281952;19;20027;-80
2023/07/01 23:21:41;;;;;;;1.63;0.60;;;;;;;16.07;100.00;97639.94;15285839;19;20014;-78
2023/07/01 23:27:11;;;;;;;1.73;0.60;;;;;;;16.07;100.00;97638.09;15289877;19;20472;-78
2023/07/01 23:32:36;;;;;;;1.20;0.52;;;;;;;16.09;100.00;97627.84;15322496;19;20011;-77
2023/07/01 23:38:12;;;;;;;1.15;0.50;;;;;;;16.10;100.00;97634.94;15261148;19;20019;-46
2023/07/01 23:43:37;;;;;;;1.88;0.50;;;;;;;16.09;100.00;97635.13;15265477;19;20033;-50
2023/07/01 23:49:01;;;;;;;1.40;0.47;;;;;;;16.08;100.00;97645.19;15265611;19;20010;-48
2023/07/01 23:54:30;;;;;;;1.70;0.50;;;;;;;16.08;100.00;97641.63;15266746;19;20382;-44
2023/07/01 23:59:55;;;;;;;1.17;0.70;;;;;;;16.08;100.00;97645.19;15268180;19;20025;-46
